Time;durP1;ratioP1;P1;durP2;ratioP2;P2;SDS_P1;SDS_P2;PMS_P1;PMS_P2;Temp;Humidity;BMP_temperature;BMP_pressure;BME280_temperature;BME280_humidity;BME280_pressure;Samples;Min_cycle;Max_cycle;Signal;HPM_P1;HPM_P2
2022/03/27 00:02:15;;;;;;;;;48.50;40.50;;;;;13.93;42.80;102116.19;5059081;28;45474;-65
2022/03/27 00:04:41;;;;;;;;;41.50;35.25;;;;;13.78;42.61;102106.19;5058657;28;46207;-65
2022/03/27 00:07:07;;;;;;;;;53.00;42.25;;;;;13.85;42.48;102121.91;5058905;28;45702;-63
2022/03/27 00:09:32;;;;;;;;;58.50;45.00;;;;;13.84;42.62;102124.66;5057828;28;45423;-63
2022/03/27 00:11:58;;;;;;;;;42.50;37.00;;;;;13.81;42.78;102127.47;5041230;28;45415;-62
2022/03/27 00:14:23;;;;;;;;;43.00;36.00;;;;;13.74;43.63;102112.63;5058292;28;45520;-62
2022/03/27 00:16:49;;;;;;;;;48.50;34.50;;;;;13.72;42.88;102111.84;5059393;28;45450;-62
2022/03/27 00:19:14;;;;;;;;;46.50;38.00;;;;;13.72;43.14;102119.84;5040482;28;45599;-60
2022/03/27 00:21:42;;;;;;;;;51.00;37.75;;;;;13.61;43.16;102111.44;5059409;28;45521;-62
2022/03/27 00:24:07;;;;;;;;;52.75;38.75;;;;;13.63;43.66;102113.09;5058437;28;45260;-65
2022/03/27 00:26:33;;;;;;;;;50.50;38.25;;;;;13.64;44.23;102125.53;5057797;28;45332;-60
2022/03/27 00:28:58;;;;;;;;;52.75;40.00;;;;;13.54;43.48;102111.72;5058173;28;45383;-61
2022/03/27 00:31:24;;;;;;;;;44.25;37.50;;;;;13.50;43.50;102111.91;5057932;28;45637;-63
2022/03/27 00:33:50;;;;;;;;;46.75;38.50;;;;;13.57;43.38;102124.09;5040575;28;46961;-59
2022/03/27 00:36:16;;;;;;;;;47.75;39.50;;;;;13.49;43.81;102116.38;5058421;28;45255;-62
2022/03/27 00:38:45;;;;;;;;;44.75;35.25;;;;;13.47;43.75;102123.59;5058743;28;45351;-61
2022/03/27 00:41:11;;;;;;;;;47.75;36.00;;;;;13.45;44.26;102122.81;5038745;28;45573;-61
2022/03/27 00:43:39;;;;;;;;;46.75;38.25;;;;;13.36;43.99;102117.84;5019920;28;46353;-62
2022/03/27 00:46:06;;;;;;;;;50.00;41.25;;;;;13.41;44.25;102109.63;5043787;28;45424;-63
2022/03/27 00:48:34;;;;;;;;;53.25;40.75;;;;;13.29;44.64;102097.69;5040138;28;45484;-63
2022/03/27 00:51:00;;;;;;;;;48.50;38.00;;;;;13.34;44.86;102111.72;5035222;28;46014;-63
2022/03/27 00:53:25;;;;;;;;;56.00;42.75;;;;;13.27;44.55;102094.19;5040013;28;46197;-62
2022/03/27 00:55:51;;;;;;;;;54.00;38.75;;;;;13.33;44.61;102126.00;5039600;28;45478;-62
2022/03/27 00:58:17;;;;;;;;;47.00;35.75;;;;;13.33;44.44;102126.00;5058606;28;45465;-60
2022/03/27 01:01:13;;;;;;;;;53.50;41.25;;;;;13.28;44.91;102122.66;5058463;28;45840;-62
2022/03/27 01:03:39;;;;;;;;;53.00;39.50;;;;;13.29;44.80;102113.72;5057979;28;46472;-60
2022/03/27 01:06:17;;;;;;;;;42.00;35.00;;;;;13.28;44.53;102110.19;5056120;28;45990;-59
2022/03/27 01:11:26;;;;;;;;;59.00;38.75;;;;;13.21;44.76;102099.81;5057699;28;45449;-66
2022/03/27 01:13:56;;;;;;;;;43.50;38.00;;;;;13.22;45.08;102112.25;5054705;28;45438;-61
2022/03/27 01:16:39;;;;;;;;;45.00;37.25;;;;;13.20;45.23;102112.31;5039730;28;46142;-64
2022/03/27 01:19:07;;;;;;;;;49.50;40.25;;;;;13.17;45.08;102100.88;5039362;28;45457;-60
2022/03/27 01:21:36;;;;;;;;;53.75;44.00;;;;;13.15;45.18;102103.59;5038852;28;45542;-61
2022/03/27 01:24:02;;;;;;;;;56.75;41.25;;;;;13.15;45.51;102108.03;5056016;28;45402;-64
2022/03/27 01:26:29;;;;;;;;;48.50;38.25;;;;;13.15;45.40;102102.72;5057438;28;45762;-63
2022/03/27 01:28:54;;;;;;;;;48.00;38.25;;;;;13.08;45.20;102090.56;5057164;28;45439;-60
2022/03/27 01:31:20;;;;;;;;;49.50;40.50;;;;;13.12;45.42;102100.19;5057840;28;45482;-62
2022/03/27 01:33:45;;;;;;;;;46.25;38.50;;;;;13.12;45.19;102093.03;5055752;28;45398;-61
2022/03/27 01:36:11;;;;;;;;;50.75;39.25;;;;;13.09;46.09;102094.97;5035235;28;45436;-61
2022/03/27 01:38:36;;;;;;;;;54.75;39.75;;;;;13.05;45.55;102090.72;5053744;28;45253;-61
2022/03/27 01:41:01;;;;;;;;;49.75;38.50;;;;;13.04;45.86;102084.50;5037945;28;45375;-59
2022/03/27 01:43:27;;;;;;;;;43.50;37.50;;;;;12.99;45.99;102075.78;5056479;28;45548;-62
2022/03/27 01:45:53;;;;;;;;;53.50;37.75;;;;;13.08;45.87;102087.91;5056715;28;45434;-61
2022/03/27 01:48:18;;;;;;;;;51.25;39.00;;;;;13.09;45.95;102085.16;5056008;28;45204;-62
2022/03/27 01:50:43;;;;;;;;;54.25;41.00;;;;;13.06;45.85;102073.75;5045571;28;45391;-62
2022/03/27 01:53:09;;;;;;;;;47.50;40.75;;;;;13.12;46.20;102082.34;5035910;28;47136;-61
2022/03/27 01:55:34;;;;;;;;;47.00;38.25;;;;;13.09;46.21;102070.94;5056714;28;45330;-62
2022/03/27 01:58:00;;;;;;;;;52.75;38.00;;;;;13.11;46.01;102077.06;5053854;28;45233;-62
2022/03/27 02:00:25;;;;;;;;;44.50;38.00;;;;;13.11;45.73;102069.06;5056701;28;45534;-62
2022/03/27 02:02:52;;;;;;;;;51.50;39.00;;;;;13.09;45.70;102073.59;5058615;28;45183;-63
2022/03/27 02:05:18;;;;;;;;;48.75;38.50;;;;;13.06;46.18;102065.72;5058418;28;45438;-61
2022/03/27 02:07:45;;;;;;;;;53.00;40.00;;;;;12.95;46.38;102050.16;5038985;28;45484;-61
2022/03/27 02:10:11;;;;;;;;;50.75;39.00;;;;;13.09;46.59;102070.94;5057495;28;45513;-64
2022/03/27 02:12:36;;;;;;;;;47.25;40.50;;;;;13.08;46.39;102069.19;5056940;28;45482;-63
2022/03/27 02:15:06;;;;;;;;;48.25;38.75;;;;;13.03;46.30;102064.06;5055985;28;45357;-60
2022/03/27 02:17:32;;;;;;;;;42.00;36.00;;;;;12.99;46.22;102073.13;5056297;28;45425;-61
2022/03/27 02:19:58;;;;;;;;;46.25;38.25;;;;;12.95;46.25;102067.03;5056957;28;45351;-62
2022/03/27 02:22:23;;;;;;;;;47.00;37.75;;;;;12.94;46.88;102070.66;5056243;28;45358;-62
2022/03/27 02:24:49;;;;;;;;;51.75;41.75;;;;;12.89;46.87;102067.31;5038641;28;45302;-63
2022/03/27 02:27:15;;;;;;;;;42.25;34.50;;;;;12.90;46.91;102073.53;5056684;28;45336;-63
2022/03/27 02:29:40;;;;;;;;;41.75;36.25;;;;;12.84;46.83;102063.97;5056626;28;45465;-62
2022/03/27 02:32:08;;;;;;;;;43.75;39.25;;;;;12.91;46.46;102069.94;5034720;28;46028;-64
2022/03/27 02:34:33;;;;;;;;;45.00;32.00;;;;;12.88;46.73;102070.91;5054470;28;45300;-61
2022/03/27 02:36:58;;;;;;;;;52.00;37.75;;;;;12.87;46.66;102057.63;5055296;28;45618;-61
2022/03/27 02:39:24;;;;;;;;;52.00;38.75;;;;;12.85;46.85;102071.03;5038511;28;46679;-61
2022/03/27 02:41:49;;;;;;;;;46.00;35.75;;;;;12.79;46.83;102073.97;5055969;28;45487;-61
2022/03/27 02:44:15;;;;;;;;;39.25;36.00;;;;;12.73;47.25;102073.34;5055768;28;45178;-61
2022/03/27 02:46:41;;;;;;;;;45.50;36.25;;;;;12.60;47.13;102055.16;5056199;28;45418;-61
2022/03/27 02:49:06;;;;;;;;;49.25;40.75;;;;;12.59;46.98;102063.25;5054506;28;45532;-60
2022/03/27 02:51:32;;;;;;;;;46.75;37.75;;;;;12.58;47.75;102074.84;5030560;28;45459;-62
2022/03/27 02:53:57;;;;;;;;;48.00;38.75;;;;;12.52;47.54;102073.31;5046936;28;45418;-61
2022/03/27 02:56:22;;;;;;;;;45.25;38.75;;;;;12.54;47.39;102078.59;5056478;28;45320;-62
2022/03/27 02:58:48;;;;;;;;;43.00;37.25;;;;;12.48;47.26;102060.13;5056275;28;45350;-62
2022/03/27 03:01:13;;;;;;;;;34.50;31.00;;;;;12.42;47.39;102061.25;5053807;28;46176;-61
2022/03/27 03:03:41;;;;;;;;;41.00;35.00;;;;;12.49;47.63;102077.88;5054264;28;45492;-59
2022/03/27 03:06:07;;;;;;;;;41.00;36.25;;;;;12.39;48.11;102072.94;5055955;28;45363;-61
2022/03/27 03:08:36;;;;;;;;;44.50;36.00;;;;;12.40;47.80;102080.00;5055318;28;45431;-62
2022/03/27 03:11:01;;;;;;;;;40.25;36.00;;;;;12.36;48.29;102078.38;5055468;28;46552;-62
2022/03/27 03:13:27;;;;;;;;;41.75;36.75;;;;;12.25;48.11;102055.75;5055806;28;45458;-61
2022/03/27 03:15:54;;;;;;;;;45.75;35.50;;;;;12.29;48.40;102076.91;5055697;28;45454;-60
2022/03/27 03:18:20;;;;;;;;;35.75;34.75;;;;;12.25;48.64;102080.63;5056386;28;45384;-60
2022/03/27 03:20:46;;;;;;;;;38.00;31.00;;;;;12.25;48.64;102085.97;5054884;28;45423;-62
2022/03/27 03:23:11;;;;;;;;;45.50;36.00;;;;;12.17;48.11;102074.72;5051068;28;45430;-63
2022/03/27 03:25:39;;;;;;;;;40.00;36.50;;;;;12.19;48.40;102088.84;5055474;28;45731;-60
2022/03/27 03:28:04;;;;;;;;;42.25;34.75;;;;;12.19;48.20;102080.84;5021966;28;45633;-60
2022/03/27 03:30:30;;;;;;;;;45.00;35.50;;;;;12.07;48.42;102055.53;5061443;28;45442;-62
2022/03/27 03:32:55;;;;;;;;;37.25;32.25;;;;;12.18;48.36;102079.09;5062605;28;45340;-61
2022/03/27 03:35:21;;;;;;;;;44.75;34.00;;;;;12.16;48.95;102080.97;5059830;28;45580;-62
2022/03/27 03:37:47;;;;;;;;;38.00;29.75;;;;;12.07;48.43;102073.31;5061134;28;45505;-63
2022/03/27 03:40:14;;;;;;;;;41.75;30.75;;;;;12.07;49.05;102089.31;5061274;28;45458;-64
2022/03/27 03:42:40;;;;;;;;;36.25;29.50;;;;;12.04;49.45;102076.97;5044320;28;45450;-65
2022/03/27 03:45:06;;;;;;;;;43.25;37.25;;;;;12.06;48.72;102090.25;5062696;28;45327;-62
2022/03/27 03:47:32;;;;;;;;;38.50;33.00;;;;;12.05;49.15;102077.84;5044893;28;45303;-63
2022/03/27 03:49:57;;;;;;;;;44.00;37.75;;;;;12.00;49.07;102079.84;5061916;28;46219;-64
2022/03/27 03:52:22;;;;;;;;;38.00;32.75;;;;;12.00;49.35;102087.84;5062250;28;45359;-63
2022/03/27 03:54:48;;;;;;;;;36.50;31.50;;;;;11.96;49.57;102084.38;5045255;28;45367;-64
2022/03/27 03:57:14;;;;;;;;;39.75;34.50;;;;;11.96;48.86;102088.84;5062613;28;45761;-63
2022/03/27 03:59:41;;;;;;;;;37.25;31.25;;;;;11.94;49.10;102088.03;5061771;28;45897;-64
2022/03/27 04:02:07;;;;;;;;;39.75;33.00;;;;;11.92;49.19;102076.56;5046077;28;45352;-62
2022/03/27 04:04:34;;;;;;;;;41.50;35.50;;;;;11.92;48.96;102087.25;5062986;28;45418;-63
2022/03/27 04:07:00;;;;;;;;;44.50;38.75;;;;;11.84;49.58;102073.31;5063031;28;45418;-61
2022/03/27 04:09:27;;;;;;;;;40.50;36.25;;;;;11.88;49.58;102080.28;5043939;28;45462;-61
2022/03/27 04:11:52;;;;;;;;;41.50;32.50;;;;;11.76;49.34;102065.59;5062352;28;45435;-61
2022/03/27 04:14:18;;;;;;;;;43.25;35.00;;;;;11.85;49.67;102077.72;5061899;28;45598;-63
2022/03/27 04:16:44;;;;;;;;;39.25;34.00;;;;;11.79;50.43;102082.38;5061902;28;45605;-61
2022/03/27 04:19:11;;;;;;;;;42.25;36.50;;;;;11.75;49.77;102086.06;5043728;28;46009;-61
2022/03/27 04:21:37;;;;;;;;;37.00;33.75;;;;;11.69;50.16;102085.41;5062253;28;45352;-63
2022/03/27 04:24:03;;;;;;;;;41.00;34.75;;;;;11.65;50.26;102079.31;5062411;28;45476;-65
2022/03/27 04:26:28;;;;;;;;;36.50;33.75;;;;;11.67;50.13;102093.44;5040879;28;45634;-63
2022/03/27 04:28:53;;;;;;;;;35.25;32.50;;;;;11.44;51.08;102066.75;5041867;28;45460;-61
2022/03/27 04:31:19;;;;;;;;;42.75;32.50;;;;;11.56;50.31;102092.97;5041324;28;45375;-63
2022/03/27 04:33:44;;;;;;;;;50.00;34.25;;;;;11.57;49.91;102091.16;5048643;28;45412;-61
2022/03/27 04:36:10;;;;;;;;;39.75;35.00;;;;;11.56;50.59;102098.28;5061902;28;45438;-62
2022/03/27 04:38:35;;;;;;;;;40.50;36.75;;;;;11.52;50.40;102094.88;5043218;28;47549;-61
2022/03/27 04:41:01;;;;;;;;;43.75;34.75;;;;;11.46;50.20;102086.25;5058281;28;45505;-60
2022/03/27 04:43:27;;;;;;;;;37.25;31.50;;;;;11.51;50.96;102094.94;5058042;28;45311;-63
2022/03/27 04:45:52;;;;;;;;;32.75;30.25;;;;;11.43;50.20;102087.22;5057604;28;45531;-61
2022/03/27 04:48:18;;;;;;;;;44.25;37.00;;;;;11.44;51.17;102098.72;5056496;28;45466;-61
2022/03/27 04:50:44;;;;;;;;;47.00;37.25;;;;;11.42;51.02;102103.25;5056990;28;45577;-61
2022/03/27 04:53:10;;;;;;;;;41.25;36.00;;;;;11.36;51.19;102091.03;5056194;28;45224;-60
2022/03/27 04:55:36;;;;;;;;;36.25;32.50;;;;;11.35;50.73;102094.63;5058580;28;45594;-61
2022/03/27 04:58:01;;;;;;;;;41.50;28.50;;;;;11.38;51.32;102096.31;5058461;28;45766;-64
2022/03/27 05:00:28;;;;;;;;;33.25;30.50;;;;;11.36;51.00;102104.34;5058285;28;45374;-61
2022/03/27 05:02:54;;;;;;;;;40.00;33.25;;;;;11.29;51.63;102096.63;5039277;28;45522;-61
2022/03/27 05:05:20;;;;;;;;;31.50;30.25;;;;;11.28;51.35;102109.06;5058168;28;45522;-62
2022/03/27 05:07:45;;;;;;;;;37.75;33.00;;;;;11.27;51.03;102099.34;5056569;28;45509;-64
2022/03/27 05:10:12;;;;;;;;;29.25;26.50;;;;;11.30;51.26;102111.66;5058023;28;45344;-62
2022/03/27 05:12:38;;;;;;;;;41.75;35.50;;;;;11.26;51.54;102107.38;5057493;28;45232;-62
2022/03/27 05:15:04;;;;;;;;;46.25;36.00;;;;;11.21;52.02;102111.09;5058410;28;45515;-63
2022/03/27 05:17:29;;;;;;;;;44.00;34.00;;;;;11.19;52.03;102107.56;5057662;28;46129;-66
2022/03/27 05:19:55;;;;;;;;;42.75;38.25;;;;;11.22;51.89;102114.63;5057371;28;45335;-63
2022/03/27 05:22:20;;;;;;;;;47.50;38.25;;;;;11.26;51.38;102118.03;5056804;28;45677;-63
2022/03/27 05:24:47;;;;;;;;;41.50;36.50;;;;;11.26;51.57;102110.91;5056871;28;45221;-63
2022/03/27 05:27:17;;;;;;;;;39.50;33.75;;;;;11.21;52.30;102121.75;5054052;28;45948;-64
2022/03/27 05:29:42;;;;;;;;;38.00;33.75;;;;;11.16;52.25;102123.66;5039517;28;45340;-63
2022/03/27 05:32:08;;;;;;;;;39.75;33.75;;;;;11.16;52.38;102123.66;5039419;28;45444;-60
2022/03/27 05:34:34;;;;;;;;;37.25;30.50;;;;;11.12;51.64;102116.72;5057517;28;45431;-64
2022/03/27 05:36:59;;;;;;;;;36.75;35.25;;;;;11.15;52.15;102127.25;5057074;28;45339;-62
2022/03/27 05:39:24;;;;;;;;;37.25;29.25;;;;;11.12;51.60;102116.72;5056542;28;45260;-64
2022/03/27 05:41:50;;;;;;;;;38.00;33.75;;;;;11.15;52.58;102127.25;5057767;28;45363;-64
2022/03/27 05:44:15;;;;;;;;;41.50;37.00;;;;;11.17;52.29;102119.22;5057670;28;45240;-64
2022/03/27 05:46:41;;;;;;;;;41.50;33.25;;;;;11.19;52.37;102123.56;5057419;28;46035;-62
2022/03/27 05:49:06;;;;;;;;;44.50;36.75;;;;;11.18;51.89;102127.16;5035028;28;45466;-61
2022/03/27 05:51:31;;;;;;;;;33.50;33.25;;;;;11.10;51.39;102115.91;5037015;28;45475;-64
2022/03/27 05:53:57;;;;;;;;;41.75;37.00;;;;;11.18;52.15;102128.94;5054352;28;45260;-61
2022/03/27 05:56:22;;;;;;;;;37.75;32.75;;;;;11.15;52.09;102121.94;5056998;28;46024;-64
2022/03/27 05:58:48;;;;;;;;;34.00;32.75;;;;;11.16;51.49;102123.66;5054761;28;45395;-60
2022/03/27 06:01:14;;;;;;;;;34.50;32.00;;;;;11.12;52.24;102126.50;5057102;28;45324;-64
2022/03/27 06:03:40;;;;;;;;;35.75;32.25;;;;;11.13;51.96;102134.44;5039249;28;45556;-65
2022/03/27 06:06:06;;;;;;;;;38.25;35.25;;;;;11.13;52.03;102139.75;5056109;28;45522;-65
2022/03/27 06:08:31;;;;;;;;;40.50;37.50;;;;;11.13;52.25;102138.88;5038894;28;45461;-64
2022/03/27 06:10:56;;;;;;;;;38.75;32.00;;;;;11.13;52.00;102139.75;5056870;28;45979;-63
2022/03/27 06:13:22;;;;;;;;;41.50;35.00;;;;;11.05;51.94;102133.81;5057225;28;45320;-64
2022/03/27 06:15:47;;;;;;;;;34.50;32.50;;;;;11.10;52.27;102144.31;5055623;28;46218;-61
2022/03/27 06:18:13;;;;;;;;;41.75;36.00;;;;;11.10;52.46;102145.19;5056665;28;45506;-62
2022/03/27 06:20:40;;;;;;;;;46.50;38.50;;;;;11.12;53.14;102140.69;5039175;28;45387;-64
2022/03/27 06:23:06;;;;;;;;;30.00;22.50;;;;;11.06;53.49;102143.53;5057480;28;45529;-61
2022/03/27 06:25:33;;;;;;;;;40.00;36.25;;;;;11.11;52.13;102144.28;5048568;28;46543;-61
2022/03/27 06:27:59;;;;;;;;;39.75;38.25;;;;;11.11;52.87;102146.06;5050728;28;45446;-63
2022/03/27 06:30:27;;;;;;;;;38.00;33.50;;;;;11.14;52.48;102145.94;5054586;28;45402;-63
2022/03/27 06:32:52;;;;;;;;;36.25;29.50;;;;;11.15;52.97;102153.88;5035265;28;45613;-64
2022/03/27 06:35:19;;;;;;;;;42.25;36.75;;;;;11.13;52.47;102158.41;5037456;28;46029;-62
2022/03/27 06:37:46;;;;;;;;;37.50;33.00;;;;;11.18;52.27;102150.25;5036340;28;45244;-63
2022/03/27 06:40:13;;;;;;;;;48.50;36.75;;;;;11.20;52.62;102148.44;5054679;28;45347;-64
2022/03/27 06:42:41;;;;;;;;;44.50;37.00;;;;;11.12;52.70;102138.03;5056280;28;45261;-60
2022/03/27 06:45:07;;;;;;;;;40.00;35.75;;;;;11.19;52.60;102155.50;5048391;28;46236;-63
2022/03/27 06:47:33;;;;;;;;;38.25;34.75;;;;;11.14;52.20;102145.94;5056253;28;45443;-61
2022/03/27 06:49:59;;;;;;;;;38.75;30.50;;;;;11.22;52.90;102158.09;5054496;28;45529;-64
2022/03/27 06:52:27;;;;;;;;;38.25;32.25;;;;;11.23;52.25;102151.84;5034774;28;45344;-63
2022/03/27 06:54:53;;;;;;;;;35.75;33.75;;;;;11.24;53.14;102152.72;5039984;28;46145;-63
2022/03/27 06:57:19;;;;;;;;;48.50;37.75;;;;;11.30;52.42;102144.50;5027526;28;45893;-64
2022/03/27 07:05:13;;;;;;;;;43.50;36.75;;;;;11.38;52.45;102149.56;5055404;28;45726;-63
2022/03/27 07:07:39;;;;;;;;;44.75;34.25;;;;;11.39;52.22;102149.53;5037523;28;45403;-61
2022/03/27 07:10:05;;;;;;;;;40.25;32.75;;;;;11.34;52.38;102140.84;5050349;28;45335;-64
2022/03/27 07:12:30;;;;;;;;;38.00;34.75;;;;;11.36;51.54;102135.44;5044179;28;45468;-64
2022/03/27 07:14:57;;;;;;;;;42.75;37.00;;;;;11.47;51.65;102149.25;5037127;28;46053;-65
2022/03/27 07:17:23;;;;;;;;;45.00;36.50;;;;;11.51;51.71;102156.22;5056394;28;45470;-63
2022/03/27 07:19:48;;;;;;;;;45.50;33.50;;;;;11.55;52.06;102151.63;5054428;28;45460;-65
2022/03/27 07:22:14;;;;;;;;;40.25;36.50;;;;;11.60;51.75;102152.38;5048395;28;45355;-63
2022/03/27 07:24:41;;;;;;;;;43.00;35.00;;;;;11.67;51.62;102144.09;5053100;28;45505;-63
2022/03/27 07:27:08;;;;;;;;;38.50;33.25;;;;;11.64;51.42;102157.53;5056094;28;45351;-61
2022/03/27 07:29:34;;;;;;;;;44.75;37.00;;;;;11.61;51.45;102144.31;5037218;28;45566;-67
2022/03/27 07:32:01;;;;;;;;;45.75;36.00;;;;;11.68;51.74;102151.16;5054097;28;45510;-64
2022/03/27 07:34:26;;;;;;;;;47.75;36.00;;;;;11.75;51.45;102158.00;5048568;28;46074;-62
2022/03/27 07:36:52;;;;;;;;;36.75;34.50;;;;;11.75;51.43;102157.16;5034904;28;45573;-62
2022/03/27 07:39:18;;;;;;;;;40.25;33.75;;;;;11.67;51.43;102146.75;5030546;28;45413;-63
2022/03/27 07:41:43;;;;;;;;;41.25;34.00;;;;;11.75;51.48;102160.69;5068013;28;46060;-63
2022/03/27 07:44:08;;;;;;;;;43.00;31.50;;;;;11.72;51.07;102159.94;5043903;28;45378;-64
2022/03/27 07:46:34;;;;;;;;;38.50;33.50;;;;;11.84;50.92;102163.94;5038038;28;45265;-64
2022/03/27 07:49:00;;;;;;;;;41.50;34.50;;;;;11.92;51.02;102168.09;5056190;28;45293;-62
2022/03/27 07:51:25;;;;;;;;;35.00;32.00;;;;;11.93;50.74;102169.81;5038182;28;45674;-63
2022/03/27 07:53:52;;;;;;;;;43.50;35.25;;;;;11.96;50.89;102164.38;5050419;28;45882;-63
2022/03/27 07:56:19;;;;;;;;;45.25;37.50;;;;;12.00;50.70;102159.81;5055218;28;45417;-61
2022/03/27 07:58:45;;;;;;;;;43.25;35.00;;;;;11.97;50.88;102155.44;5055687;28;45397;-64
2022/03/27 08:01:14;;;;;;;;;41.50;34.75;;;;;12.06;50.90;102171.13;5034062;28;45623;-62
2022/03/27 08:03:40;;;;;;;;;39.75;31.50;;;;;11.92;50.57;102129.91;5035740;28;45373;-64
2022/03/27 08:06:06;;;;;;;;;36.50;35.50;;;;;11.94;50.46;102123.56;5048274;28;45493;-62
2022/03/27 08:08:32;;;;;;;;;38.00;33.75;;;;;12.24;50.26;102168.69;5019812;28;45647;-62
2022/03/27 08:10:57;;;;;;;;;41.75;35.00;;;;;12.28;50.12;102159.66;5046617;28;45558;-60
2022/03/27 08:13:23;;;;;;;;;40.25;35.25;;;;;12.29;50.04;102153.38;5053502;28;45431;-60
2022/03/27 08:15:49;;;;;;;;;41.00;36.25;;;;;12.31;50.18;102147.06;5057737;28;45450;-61
2022/03/27 08:18:15;;;;;;;;;36.25;32.75;;;;;12.44;50.04;102165.25;5040042;28;45523;-60
2022/03/27 08:20:40;;;;;;;;;36.00;31.25;;;;;12.54;49.68;102177.31;5037580;28;45744;-61
2022/03/27 08:23:07;;;;;;;;;37.75;34.50;;;;;12.57;49.50;102172.72;5051310;28;45488;-63
2022/03/27 08:28:20;;;;;;;;;40.50;36.50;;;;;12.75;49.30;102179.13;5057458;28;45652;-60
2022/03/27 08:30:49;;;;;;;;;47.75;36.00;;;;;12.82;48.99;102172.63;5040449;28;45534;-59
2022/03/27 08:33:16;;;;;;;;;42.00;35.75;;;;;12.89;48.84;102175.91;5057152;28;47292;-60
2022/03/27 08:35:42;;;;;;;;;39.75;31.00;;;;;12.96;48.42;102174.72;5038993;28;45311;-60
2022/03/27 08:38:10;;;;;;;;;33.25;33.25;;;;;12.99;48.80;102162.13;5053998;28;45279;-61
2022/03/27 08:40:38;;;;;;;;;28.75;26.50;;;;;13.12;48.48;102167.81;5037384;28;45331;-60
2022/03/27 08:43:08;;;;;;;;;47.00;36.00;;;;;13.24;48.00;102169.16;5045014;28;45437;-62
2022/03/27 08:45:34;;;;;;;;;34.25;28.50;;;;;13.34;47.64;102169.63;5039010;28;45555;-61
2022/03/27 08:47:59;;;;;;;;;31.00;27.25;;;;;13.42;46.58;102163.03;5058337;28;45246;-62
2022/03/27 08:50:44;;;;;;;;;29.75;26.75;;;;;13.58;45.97;102164.09;5058710;28;45535;-62
2022/03/27 08:53:12;;;;;;;;;33.25;25.50;;;;;13.80;45.83;102152.44;5059670;28;46200;-61
2022/03/27 08:55:55;;;;;;;;;36.75;30.00;;;;;13.93;44.78;102139.38;5042029;28;45383;-64
2022/03/27 08:58:28;;;;;;;;;36.00;29.50;;;;;14.31;44.21;102165.25;5059954;28;45315;-61
2022/03/27 09:00:54;;;;;;;;;35.00;28.75;;;;;14.49;43.47;102155.53;5038924;28;45474;-63
2022/03/27 09:03:20;;;;;;;;;31.50;22.00;;;;;14.79;43.87;102165.72;5041055;28;45344;-62
2022/03/27 09:05:46;;;;;;;;;27.75;23.00;;;;;14.88;42.87;102157.22;5058710;28;45277;-61
2022/03/27 09:08:12;;;;;;;;;27.25;26.25;;;;;15.18;42.72;102162.88;5058215;28;45245;-64
2022/03/27 09:10:40;;;;;;;;;29.00;28.50;;;;;15.37;42.55;102170.88;5057305;28;45537;-61
2022/03/27 09:13:11;;;;;;;;;33.25;27.50;;;;;15.56;41.65;102172.50;5056121;28;45410;-60
2022/03/27 09:15:37;;;;;;;;;28.75;26.50;;;;;15.67;41.31;102155.88;5040018;28;45275;-60
2022/03/27 09:18:10;;;;;;;;;34.50;30.50;;;;;15.90;41.46;102168.97;5038858;28;45353;-65
2022/03/27 09:20:46;;;;;;;;;29.25;25.00;;;;;16.19;40.73;102177.25;5057820;28;45466;-60
2022/03/27 09:23:25;;;;;;;;;40.25;32.50;;;;;16.44;39.57;102174.09;5058165;28;46470;-61
2022/03/27 09:25:52;;;;;;;;;31.25;29.75;;;;;16.60;39.02;102157.97;5057183;28;45340;-61
2022/03/27 09:28:23;;;;;;;;;40.75;33.25;;;;;16.87;39.26;102156.44;5057356;28;45744;-60
2022/03/27 09:30:48;;;;;;;;;31.33;26.00;;;;;17.21;38.44;102171.47;5023262;28;46103;-63
2022/03/27 09:33:32;;;;;;;;;31.67;24.00;;;;;17.49;38.27;102175.22;5055090;28;45459;-61
2022/03/27 09:36:05;;;;;;;;;31.00;29.33;;;;;17.71;37.54;102162.22;5055251;28;45297;-61
2022/03/27 09:38:31;;;;;;;;;36.00;30.67;;;;;17.89;37.50;102160.22;5039187;28;45309;-60
2022/03/27 09:40:56;;;;;;;;;33.33;25.67;;;;;18.00;37.09;102160.44;5057380;28;45686;-61
2022/03/27 09:43:22;;;;;;;;;34.00;29.33;;;;;18.12;36.76;102154.28;5057435;28;45422;-61
2022/03/27 09:45:59;;;;;;;;;27.67;26.33;;;;;18.22;36.90;102160.78;5042892;28;45454;-60
2022/03/27 09:48:25;;;;;;;;;24.67;24.67;;;;;18.21;36.04;102159.06;5041565;28;45893;-60
2022/03/27 09:50:53;;;;;;;;;28.33;24.00;;;;;18.16;36.15;102155.81;5037614;28;45589;-60
2022/03/27 09:53:26;;;;;;;;;33.00;31.67;;;;;18.11;36.32;102140.91;5057338;28;45374;-61
2022/03/27 09:55:58;;;;;;;;;30.00;27.67;;;;;18.11;36.39;102152.56;5057188;28;45298;-61
2022/03/27 09:58:37;;;;;;;;;32.67;24.33;;;;;18.19;36.46;102155.59;5057385;28;45550;-61
2022/03/27 10:01:20;;;;;;;;;25.33;21.00;;;;;18.23;35.79;102150.91;5045035;28;45483;-61
2022/03/27 10:04:16;;;;;;;;;26.33;25.67;;;;;18.24;36.24;102148.13;5048163;28;45376;-62
2022/03/27 10:06:42;;;;;;;;;42.00;30.00;;;;;18.18;36.10;102137.72;5049237;28;45446;-62
2022/03/27 10:09:11;;;;;;;;;31.00;26.33;;;;;17.92;36.31;102116.97;5020365;28;45587;-61
2022/03/27 10:11:38;;;;;;;;;35.33;27.67;;;;;18.04;36.61;102132.34;5056801;28;45454;-66
2022/03/27 10:14:06;;;;;;;;;35.67;30.33;;;;;18.14;36.03;102146.97;5056519;28;45497;-60
2022/03/27 10:16:35;;;;;;;;;32.00;29.00;;;;;18.00;36.10;102121.88;5036958;28;45526;-62
2022/03/27 10:19:18;;;;;;;;;31.67;28.33;;;;;18.04;36.06;102131.47;5055482;28;45548;-63
2022/03/27 10:21:49;;;;;;;;;34.00;30.67;;;;;18.02;36.43;102130.72;5054536;28;45449;-59
2022/03/27 10:24:16;;;;;;;;;37.00;31.00;;;;;17.97;37.69;102133.72;5055853;28;45354;-64
2022/03/27 10:26:44;;;;;;;;;37.33;31.67;;;;;17.91;37.07;102129.56;5055549;28;45391;-64
2022/03/27 10:29:11;;;;;;;;;35.00;27.33;;;;;17.91;37.65;102129.56;5055612;28;45189;-60
2022/03/27 10:31:38;;;;;;;;;32.67;29.67;;;;;17.91;37.32;102128.69;5037062;28;45582;-62
2022/03/27 10:34:05;;;;;;;;;33.33;31.33;;;;;17.86;38.13;102128.13;5025761;28;46027;-65
2022/03/27 10:36:55;;;;;;;;;31.00;28.33;;;;;17.87;37.65;102124.47;5037936;28;45427;-62
2022/03/27 10:39:34;;;;;;;;;30.33;27.67;;;;;17.92;37.49;102117.81;5056345;28;45507;-64
2022/03/27 10:42:37;;;;;;;;;34.67;31.67;;;;;17.98;37.82;102116.59;5056129;28;45300;-59
2022/03/27 10:45:06;;;;;;;;;40.67;33.00;;;;;18.02;37.21;102115.44;5055294;28;45594;-61
2022/03/27 10:47:32;;;;;;;;;34.33;29.00;;;;;18.03;37.20;102101.00;5055144;28;45340;-60
2022/03/27 10:50:00;;;;;;;;;27.00;25.00;;;;;18.07;36.93;102102.53;5055388;28;45551;-60
2022/03/27 10:52:26;;;;;;;;;37.00;31.67;;;;;18.09;36.60;102097.91;5056368;28;45562;-60
2022/03/27 10:55:17;;;;;;;;;36.00;30.33;;;;;18.03;35.15;102092.06;5055574;28;45296;-61
2022/03/27 10:57:49;;;;;;;;;34.00;30.33;;;;;18.09;35.19;102097.91;5055942;28;45456;-61
2022/03/27 11:00:35;;;;;;;;;36.33;30.33;;;;;18.18;36.12;102089.25;5055882;28;45303;-61
2022/03/27 11:03:01;;;;;;;;;39.00;33.33;;;;;18.31;35.97;102088.47;5024363;28;45449;-64
2022/03/27 11:05:35;;;;;;;;;39.00;27.00;;;;;18.33;35.09;102090.09;5036793;28;46283;-60
2022/03/27 11:08:18;;;;;;;;;27.00;27.00;;;;;18.46;35.47;102082.06;5050532;28;45432;-61
2022/03/27 11:10:54;;;;;;;;;41.00;31.33;;;;;18.61;34.92;102080.19;5041270;28;45389;-62
2022/03/27 11:13:25;;;;;;;;;34.33;29.33;;;;;18.72;34.12;102078.56;5055021;28;45574;-59
2022/03/27 11:16:09;;;;;;;;;33.67;29.67;;;;;18.84;34.33;102060.69;5056255;28;45227;-61
2022/03/27 11:18:35;;;;;;;;;33.67;29.33;;;;;19.00;34.13;102074.00;5021486;28;45391;-61
2022/03/27 11:21:01;;;;;;;;;31.67;30.33;;;;;19.00;33.77;102058.69;5046443;28;45443;-58
2022/03/27 11:23:27;;;;;;;;;32.33;29.67;;;;;19.24;34.37;102061.53;5055492;28;45721;-59